Time;durP1;ratioP1;P1;durP2;ratioP2;P2;SDS_P1;SDS_P2;PMS_P1;PMS_P2;Temp;Humidity;BMP_temperature;BMP_pressure;BME280_temperature;BME280_humidity;BME280_pressure;Samples;Min_cycle;Max_cycle;Signal;HPM_P1;HPM_P2
2022/04/14 00:00:37;;;;;;;24.38;18.17;;;17.50;68.00;;;;;;5081579;28;20040;-48
2022/04/14 00:03:07;;;;;;;24.50;18.40;;;17.50;68.10;;;;;;5087317;28;20404;-49
2022/04/14 00:05:39;;;;;;;27.42;18.73;;;17.50;68.30;;;;;;5081969;28;20039;-47
2022/04/14 00:08:08;;;;;;;25.73;19.20;;;17.50;68.20;;;;;;5069130;28;20040;-47
2022/04/14 00:10:35;;;;;;;28.77;18.05;;;17.50;68.20;;;;;;5069178;28;20063;-51
2022/04/14 00:13:09;;;;;;;;;;;17.40;68.10;;;;;;5075298;28;20028;-51
2022/04/14 00:15:43;;;;;;;23.38;16.55;;;17.50;68.20;;;;;;5074813;28;20833;-46
2022/04/14 00:18:13;;;;;;;25.30;18.25;;;17.50;67.40;;;;;;5088725;28;20559;-47
2022/04/14 00:20:40;;;;;;;22.63;16.65;;;17.40;67.80;;;;;;5062643;28;20051;-47
2022/04/14 00:23:06;;;;;;;27.17;19.27;;;17.40;68.00;;;;;;5088487;28;20044;-50
2022/04/14 00:25:33;;;;;;;25.92;19.25;;;17.40;68.20;;;;;;5084841;28;20123;-50
2022/04/14 00:28:03;;;;;;;26.33;18.98;;;17.40;68.20;;;;;;5088497;28;20040;-49
2022/04/14 00:30:32;;;;;;;27.08;19.02;;;17.40;68.70;;;;;;5081148;28;20044;-47
2022/04/14 00:32:59;;;;;;;28.27;18.88;;;17.40;68.50;;;;;;5083760;28;20044;-50
2022/04/14 00:35:26;;;;;;;23.27;18.25;;;17.40;68.50;;;;;;5075602;28;20040;-48
2022/04/14 00:37:58;;;;;;;24.92;17.65;;;17.30;68.60;;;;;;5076609;28;20040;-50
2022/04/14 00:40:27;;;;;;;26.08;18.58;;;17.30;68.60;;;;;;5056038;28;20048;-50
2022/04/14 00:42:53;;;;;;;24.15;16.88;;;17.30;68.60;;;;;;5077542;28;20091;-51
2022/04/14 00:45:23;;;;;;;27.67;19.42;;;17.30;68.60;;;;;;5081395;28;20573;-47
2022/04/14 00:47:52;;;;;;;27.02;17.73;;;17.30;68.70;;;;;;5077194;28;20458;-46
2022/04/14 00:50:19;;;;;;;23.45;17.75;;;17.30;68.70;;;;;;5077223;28;20507;-49
2022/04/14 00:52:53;;;;;;;26.08;19.17;;;17.20;68.40;;;;;;5083528;28;20054;-46
2022/04/14 00:55:20;;;;;;;24.63;18.52;;;17.30;69.10;;;;;;5087470;28;20036;-50
2022/04/14 00:57:49;;;;;;;28.02;20.85;;;17.20;68.50;;;;;;5083356;28;20040;-48
2022/04/14 01:00:16;;;;;;;29.17;19.73;;;17.20;68.50;;;;;;5085543;28;20658;-48
2022/04/14 01:02:47;;;;;;;27.10;19.23;;;17.20;68.70;;;;;;5087409;28;20049;-51
2022/04/14 01:05:21;;;;;;;32.33;20.95;;;17.10;68.70;;;;;;5085961;28;20043;-50
2022/04/14 01:07:58;;;;;;;30.85;20.52;;;17.10;68.80;;;;;;5088780;28;20110;-47
2022/04/14 01:10:30;;;;;;;24.73;18.02;;;17.10;69.00;;;;;;5085488;28;20163;-49
2022/04/14 01:12:57;;;;;;;30.60;20.13;;;17.10;68.90;;;;;;5081340;28;20036;-50
2022/04/14 01:15:27;;;;;;;30.55;20.77;;;17.10;68.80;;;;;;5075828;28;20048;-48
2022/04/14 01:17:54;;;;;;;35.10;24.17;;;17.00;69.10;;;;;;5062791;28;20029;-48
2022/04/14 01:20:20;;;;;;;34.33;21.50;;;17.00;69.00;;;;;;5069011;28;20045;-46
2022/04/14 01:23:00;;;;;;;33.85;23.65;;;17.00;69.20;;;;;;5073987;28;20044;-48
2022/04/14 01:25:35;;;;;;;36.30;23.00;;;17.00;70.20;;;;;;5082763;28;20455;-50
2022/04/14 01:28:03;;;;;;;35.00;24.15;;;16.90;69.90;;;;;;5082602;28;20033;-51
2022/04/14 01:30:38;;;;;;;35.70;23.35;;;17.00;69.40;;;;;;5072547;28;20040;-50
2022/04/14 01:33:08;;;;;;;38.17;24.42;;;16.90;69.70;;;;;;5090307;28;20115;-47
2022/04/14 01:35:39;;;;;;;38.67;25.23;;;16.90;69.50;;;;;;5081963;28;20036;-47
2022/04/14 01:38:06;;;;;;;40.30;24.95;;;16.90;69.50;;;;;;5088302;28;20106;-49
2022/04/14 01:40:35;;;;;;;38.50;25.52;;;16.90;69.60;;;;;;5072775;28;20044;-51
2022/04/14 01:43:02;;;;;;;43.83;27.80;;;16.90;69.70;;;;;;5089025;28;20613;-48
2022/04/14 01:45:29;;;;;;;40.22;26.38;;;16.90;69.80;;;;;;5082869;28;20040;-47
2022/04/14 01:47:58;;;;;;;42.42;26.65;;;16.90;69.90;;;;;;5091970;28;20055;-50
2022/04/14 01:50:29;;;;;;;42.88;27.27;;;16.80;69.90;;;;;;5084754;28;20036;-46
2022/04/14 01:52:59;;;;;;;42.28;25.80;;;16.80;69.80;;;;;;5091345;28;20044;-51
2022/04/14 01:55:26;;;;;;;41.53;27.70;;;16.80;69.90;;;;;;5082719;28;20052;-48
2022/04/14 01:57:53;;;;;;;45.55;29.02;;;16.80;70.00;;;;;;5087542;28;20584;-46
2022/04/14 02:00:21;;;;;;;41.88;27.40;;;16.80;70.10;;;;;;5091130;28;20131;-45
2022/04/14 02:02:51;;;;;;;43.42;28.75;;;16.80;70.20;;;;;;5082870;28;20036;-48
2022/04/14 02:05:19;;;;;;;41.67;27.33;;;16.90;70.40;;;;;;5090042;28;20036;-50
2022/04/14 02:07:46;;;;;;;38.75;25.25;;;16.80;70.30;;;;;;5082444;28;20036;-50
2022/04/14 02:10:14;;;;;;;44.10;27.38;;;16.80;70.30;;;;;;5077285;28;20097;-49
2022/04/14 02:12:45;;;;;;;40.33;26.35;;;16.70;70.30;;;;;;5084855;28;20101;-47
2022/04/14 02:15:14;;;;;;;37.90;24.85;;;16.80;70.40;;;;;;5073494;28;20052;-50
2022/04/14 02:17:44;;;;;;;34.75;23.77;;;16.70;70.30;;;;;;5061269;28;20063;-50
2022/04/14 02:20:11;;;;;;;30.45;21.50;;;16.70;70.40;;;;;;5070545;28;20044;-46
2022/04/14 02:22:44;;;;;;;25.65;19.40;;;16.70;70.20;;;;;;5082640;28;20059;-47
2022/04/14 02:25:13;;;;;;;30.75;20.50;;;16.70;70.00;;;;;;5081731;28;20562;-50
2022/04/14 02:27:39;;;;;;;26.17;17.88;;;16.70;70.00;;;;;;5086796;28;20032;-46
2022/04/14 02:30:09;;;;;;;27.65;19.23;;;16.70;69.90;;;;;;5088058;28;20089;-48
2022/04/14 02:32:36;;;;;;;26.33;18.98;;;16.70;69.70;;;;;;5084691;28;20040;-50
2022/04/14 02:35:14;;;;;;;24.95;17.60;;;16.70;69.50;;;;;;5087956;28;20451;-47
2022/04/14 02:37:46;;;;;;;26.02;17.15;;;16.70;69.50;;;;;;5085998;28;20462;-46
2022/04/14 02:40:18;;;;;;;24.13;18.35;;;16.70;70.00;;;;;;5072807;28;20045;-47
2022/04/14 02:42:54;;;;;;;21.63;15.75;;;16.60;69.60;;;;;;5072462;28;20048;-48
2022/04/14 02:45:21;;;;;;;24.52;16.45;;;16.60;69.30;;;;;;5080586;28;20028;-49
2022/04/14 02:47:48;;;;;;;22.13;15.77;;;16.60;69.10;;;;;;5087678;28;20027;-49
2022/04/14 02:50:15;;;;;;;21.40;14.80;;;16.60;69.20;;;;;;5080492;28;20044;-46
2022/04/14 02:52:46;;;;;;;20.13;14.57;;;16.60;69.30;;;;;;5090260;28;20047;-47
2022/04/14 02:55:19;;;;;;;22.10;15.85;;;16.50;69.60;;;;;;5083015;28;20051;-49
2022/04/14 02:57:47;;;;;;;18.95;14.27;;;16.50;69.40;;;;;;5083131;28;20102;-50
2022/04/14 03:00:14;;;;;;;21.90;14.60;;;16.50;69.40;;;;;;5071623;28;20051;-46
2022/04/14 03:02:44;;;;;;;19.02;14.50;;;16.40;69.30;;;;;;5084403;28;20036;-47
2022/04/14 03:05:11;;;;;;;19.08;14.43;;;16.40;69.60;;;;;;5084159;28;20098;-49
2022/04/14 03:07:50;;;;;;;17.80;13.10;;;16.40;69.50;;;;;;5090264;28;20115;-50
2022/04/14 03:10:20;;;;;;;20.73;14.60;;;16.40;69.50;;;;;;5069631;28;20116;-46
2022/04/14 03:12:49;;;;;;;19.02;13.38;;;16.30;69.60;;;;;;5072882;28;20044;-50
2022/04/14 03:15:21;;;;;;;18.35;13.27;;;16.30;69.50;;;;;;5073718;28;20357;-46
2022/04/14 03:17:50;;;;;;;17.35;13.32;;;16.30;69.80;;;;;;5078567;28;20116;-50
2022/04/14 03:20:19;;;;;;;18.38;12.95;;;16.30;69.60;;;;;;5068936;28;20048;-47
2022/04/14 03:22:48;;;;;;;17.98;12.50;;;16.20;69.40;;;;;;5085186;28;20042;-51
2022/04/14 03:25:21;;;;;;;19.75;13.98;;;16.20;69.40;;;;;;5085834;28;20039;-50
2022/04/14 03:27:48;;;;;;;16.58;12.77;;;16.20;69.60;;;;;;5077995;28;20033;-46
2022/04/14 03:30:15;;;;;;;18.27;13.43;;;16.20;69.40;;;;;;5079280;28;20032;-48
2022/04/14 03:32:45;;;;;;;16.85;12.43;;;16.20;69.50;;;;;;5081919;28;20043;-47
2022/04/14 03:35:13;;;;;;;16.13;12.05;;;16.10;69.60;;;;;;5079314;28;20560;-50
2022/04/14 03:37:41;;;;;;;18.48;13.00;;;16.10;69.60;;;;;;5085066;28;20044;-48
2022/04/14 03:40:12;;;;;;;15.10;11.23;;;16.10;69.60;;;;;;5069348;28;20101;-47
2022/04/14 03:42:38;;;;;;;14.55;10.98;;;16.10;69.20;;;;;;5083583;28;20491;-46
2022/04/14 03:45:09;;;;;;;15.82;12.10;;;16.00;69.50;;;;;;5087440;28;20086;-47
2022/04/14 03:47:36;;;;;;;15.02;11.20;;;16.00;69.50;;;;;;5082453;28;20044;-50
2022/04/14 03:50:08;;;;;;;15.02;12.05;;;16.00;69.60;;;;;;5084330;28;20040;-50
2022/04/14 03:52:35;;;;;;;14.98;11.32;;;16.00;69.50;;;;;;5083982;28;20125;-45
2022/04/14 03:55:02;;;;;;;14.30;11.07;;;16.00;69.50;;;;;;5079913;28;20044;-50
2022/04/14 03:57:29;;;;;;;13.85;11.05;;;16.00;69.50;;;;;;5078341;28;20397;-49
2022/04/14 03:59:55;;;;;;;14.10;10.77;;;15.90;69.50;;;;;;5082396;28;20101;-47
2022/04/14 04:02:25;;;;;;;14.70;11.65;;;15.90;69.60;;;;;;5081897;28;20433;-49
2022/04/14 04:05:01;;;;;;;17.63;12.30;;;15.80;69.70;;;;;;5076147;28;20040;-46
2022/04/14 04:07:29;;;;;;;15.05;10.73;;;15.80;69.90;;;;;;5082564;28;20054;-46
2022/04/14 04:09:58;;;;;;;12.23;10.15;;;15.80;69.80;;;;;;5076164;28;20060;-47
2022/04/14 04:12:28;;;;;;;13.32;9.77;;;15.80;69.80;;;;;;5062334;28;20051;-48
2022/04/14 04:15:00;;;;;;;12.82;9.77;;;15.80;69.70;;;;;;5078898;28;20166;-47
2022/04/14 04:17:29;;;;;;;14.02;10.40;;;15.70;69.70;;;;;;5075530;28;20035;-47
2022/04/14 04:19:57;;;;;;;10.48;8.80;;;15.70;69.60;;;;;;5084771;28;20046;-50
2022/04/14 04:22:29;;;;;;;15.35;11.38;;;15.70;69.60;;;;;;5088194;28;20131;-49
2022/04/14 04:24:59;;;;;;;13.52;11.25;;;15.60;69.80;;;;;;5080684;28;20066;-50
2022/04/14 04:27:28;;;;;;;15.48;10.05;;;15.60;70.00;;;;;;5080486;28;20492;-48
2022/04/14 04:29:55;;;;;;;12.90;9.73;;;15.60;70.00;;;;;;5091771;28;20059;-47
2022/04/14 04:32:25;;;;;;;11.27;9.57;;;15.60;69.90;;;;;;5082824;28;20040;-48
2022/04/14 04:34:51;;;;;;;11.88;10.30;;;15.50;69.90;;;;;;5082710;28;20040;-46
2022/04/14 04:37:18;;;;;;;12.95;10.13;;;15.50;69.90;;;;;;5088775;28;20575;-46
2022/04/14 04:39:45;;;;;;;12.98;10.10;;;15.50;70.00;;;;;;5089607;28;20089;-46
2022/04/14 04:42:14;;;;;;;11.77;9.45;;;15.50;70.00;;;;;;5084815;28;20040;-46
2022/04/14 04:44:46;;;;;;;12.18;9.30;;;15.40;69.90;;;;;;5093371;28;20040;-46
2022/04/14 04:47:12;;;;;;;9.77;7.90;;;15.40;70.10;;;;;;5090313;28;20518;-50
2022/04/14 04:49:39;;;;;;;13.32;9.60;;;15.40;69.80;;;;;;5092544;28;20028;-46
2022/04/14 04:52:06;;;;;;;12.63;9.65;;;15.40;69.90;;;;;;5084068;28;20454;-50
2022/04/14 04:54:37;;;;;;;16.33;10.63;;;15.30;70.00;;;;;;5092930;28;20569;-45
2022/04/14 04:57:07;;;;;;;13.02;9.93;;;15.40;70.40;;;;;;5086898;28;20043;-47
2022/04/14 04:59:34;;;;;;;10.65;8.30;;;15.30;70.20;;;;;;5093799;28;20499;-47
2022/04/14 05:02:00;;;;;;;10.82;8.75;;;15.30;70.20;;;;;;5077245;28;20043;-47
2022/04/14 05:04:27;;;;;;;11.30;8.55;;;15.20;70.20;;;;;;5078173;28;20452;-46
2022/04/14 05:06:54;;;;;;;11.82;8.88;;;15.20;70.20;;;;;;5082254;28;20040;-50
2022/04/14 05:09:23;;;;;;;10.52;7.70;;;15.20;70.20;;;;;;5080556;28;20040;-48
2022/04/14 05:11:50;;;;;;;10.68;8.48;;;15.20;70.10;;;;;;5081680;28;20538;-46
2022/04/14 05:14:17;;;;;;;12.23;8.32;;;15.20;70.10;;;;;;5079433;28;20048;-47
2022/04/14 05:16:44;;;;;;;10.63;8.20;;;15.20;70.20;;;;;;5085414;28;20040;-47
2022/04/14 05:19:10;;;;;;;10.05;8.38;;;15.20;70.10;;;;;;5080808;28;20086;-49
2022/04/14 05:21:37;;;;;;;10.38;7.93;;;15.10;70.10;;;;;;5084355;28;20098;-46
2022/04/14 05:24:06;;;;;;;9.85;7.82;;;15.10;70.10;;;;;;5083256;28;20032;-50
2022/04/14 05:26:33;;;;;;;7.70;6.45;;;15.10;69.90;;;;;;5078180;28;20043;-49
2022/04/14 05:29:00;;;;;;;9.52;7.72;;;15.10;69.90;;;;;;5080300;28;20056;-50
2022/04/14 05:31:28;;;;;;;10.45;8.27;;;15.10;70.00;;;;;;5082918;28;20529;-50
2022/04/14 05:33:55;;;;;;;8.63;6.90;;;15.10;70.20;;;;;;5062975;28;20050;-54
2022/04/14 05:36:22;;;;;;;9.05;6.85;;;15.10;70.10;;;;;;5078770;28;20051;-52
2022/04/14 05:38:49;;;;;;;10.00;7.35;;;15.00;70.10;;;;;;5074664;28;20049;-50
2022/04/14 05:41:15;;;;;;;9.32;7.05;;;15.00;70.10;;;;;;5078299;28;20503;-53
2022/04/14 05:43:42;;;;;;;7.68;6.00;;;15.10;70.30;;;;;;5084236;28;20040;-51
2022/04/14 05:46:09;;;;;;;7.97;6.38;;;15.00;70.20;;;;;;5082442;28;20064;-50
2022/04/14 05:48:36;;;;;;;9.38;6.90;;;15.00;70.30;;;;;;5086965;28;20044;-53
2022/04/14 05:51:04;;;;;;;9.15;7.28;;;15.00;70.30;;;;;;5075888;28;20067;-49
2022/04/14 05:53:31;;;;;;;8.90;7.15;;;15.00;70.50;;;;;;5080213;28;20047;-52
2022/04/14 05:56:00;;;;;;;8.40;7.07;;;15.00;70.60;;;;;;5078213;28;20037;-52
2022/04/14 05:58:29;;;;;;;11.52;7.65;;;15.00;70.70;;;;;;5061499;28;20075;-53
2022/04/14 06:00:55;;;;;;;11.23;7.25;;;15.00;70.80;;;;;;5062114;28;20576;-52
2022/04/14 06:03:24;;;;;;;8.20;6.47;;;15.00;70.80;;;;;;5080464;28;20044;-50
2022/04/14 06:05:51;;;;;;;8.75;7.32;;;15.00;70.80;;;;;;5082065;28;20089;-54
2022/04/14 06:08:18;;;;;;;7.88;6.20;;;14.90;70.70;;;;;;5078845;28;20068;-52
2022/04/14 06:10:45;;;;;;;8.27;6.55;;;14.90;70.50;;;;;;5073858;28;20135;-53
2022/04/14 06:13:11;;;;;;;9.25;6.60;;;14.90;70.50;;;;;;5077675;28;20110;-54
2022/04/14 06:15:38;;;;;;;7.75;5.72;;;14.90;70.50;;;;;;5081102;28;20610;-52
2022/04/14 06:18:05;;;;;;;5.90;5.28;;;14.90;70.40;;;;;;5080294;28;20086;-53
2022/04/14 06:20:32;;;;;;;7.78;5.85;;;14.80;70.40;;;;;;5079824;28;20048;-53
2022/04/14 06:23:01;;;;;;;6.43;5.68;;;14.80;70.50;;;;;;5078143;28;20071;-55
2022/04/14 06:25:31;;;;;;;8.48;6.15;;;14.80;70.50;;;;;;5079275;28;20140;-54
2022/04/14 06:27:58;;;;;;;7.38;6.10;;;14.80;70.70;;;;;;5075781;28;20071;-54
2022/04/14 06:30:24;;;;;;;6.32;5.45;;;14.80;70.50;;;;;;5079638;28;20048;-53
2022/04/14 06:32:59;;;;;;;5.75;5.15;;;14.70;70.50;;;;;;5081568;28;20114;-53
2022/04/14 06:35:29;;;;;;;6.30;4.55;;;14.70;71.00;;;;;;5073564;28;20519;-52
2022/04/14 06:37:57;;;;;;;5.57;4.85;;;14.70;70.60;;;;;;5081248;28;20848;-54
2022/04/14 06:40:24;;;;;;;8.18;6.35;;;14.70;70.60;;;;;;5080249;28;20094;-52
2022/04/14 06:43:01;;;;;;;7.60;5.55;;;14.70;71.00;;;;;;5079471;28;20033;-51
2022/04/14 06:45:29;;;;;;;7.93;5.93;;;14.60;71.30;;;;;;5080103;28;20043;-51
2022/04/14 06:47:57;;;;;;;7.75;6.10;;;14.70;71.60;;;;;;5077354;28;20047;-52
2022/04/14 06:50:23;;;;;;;7.43;5.45;;;14.70;72.00;;;;;;5078744;28;20527;-50
2022/04/14 06:52:53;;;;;;;8.85;6.25;;;14.70;72.20;;;;;;5080117;28;20128;-49
2022/04/14 06:55:23;;;;;;;7.45;6.28;;;14.70;72.50;;;;;;5078262;28;20085;-51
2022/04/14 06:57:50;;;;;;;7.70;6.20;;;14.80;72.70;;;;;;5080352;28;20050;-54
2022/04/14 07:00:18;;;;;;;8.80;5.85;;;14.80;72.80;;;;;;5080147;28;20036;-50
2022/04/14 07:02:50;;;;;;;8.75;6.97;;;14.80;73.00;;;;;;5075017;28;20499;-54
2022/04/14 07:05:18;;;;;;;8.63;6.47;;;14.90;73.30;;;;;;5069954;28;20621;-53
2022/04/14 07:07:45;;;;;;;7.00;5.95;;;14.90;73.10;;;;;;5083478;28;20183;-50
2022/04/14 07:10:13;;;;;;;8.13;6.50;;;15.00;73.20;;;;;;5076273;28;20066;-50
2022/04/14 07:12:40;;;;;;;10.02;7.32;;;15.10;73.50;;;;;;5084363;28;20066;-53
2022/04/14 07:15:09;;;;;;;8.80;6.63;;;15.10;73.80;;;;;;5076277;28;20036;-53
2022/04/14 07:17:36;;;;;;;10.77;7.97;;;15.20;73.90;;;;;;5079549;28;20605;-50
2022/04/14 07:20:05;;;;;;;11.52;9.43;;;15.30;73.80;;;;;;5076788;28;20053;-50
2022/04/14 07:22:50;;;;;;;12.15;8.18;;;15.40;73.90;;;;;;5079245;28;20070;-50
2022/04/14 07:25:23;;;;;;;11.50;9.25;;;15.50;74.30;;;;;;5079197;28;20040;-53
2022/04/14 07:27:50;;;;;;;14.30;10.00;;;15.50;73.40;;;;;;5081337;28;20047;-51
2022/04/14 07:30:18;;;;;;;13.55;10.10;;;15.60;73.50;;;;;;5082256;28;20032;-49
2022/04/14 07:32:45;;;;;;;15.27;10.68;;;15.70;73.50;;;;;;5076333;28;20044;-54
2022/04/14 07:35:13;;;;;;;17.40;12.30;;;15.70;73.40;;;;;;5078057;28;20042;-50
2022/04/14 07:37:40;;;;;;;18.38;11.55;;;15.80;73.40;;;;;;5081810;28;20085;-49
2022/04/14 07:40:11;;;;;;;18.05;13.77;;;15.90;73.40;;;;;;5060296;28;20052;-53
2022/04/14 07:42:40;;;;;;;22.73;14.93;;;16.00;73.60;;;;;;5060081;28;20035;-53
2022/04/14 07:45:09;;;;;;;19.45;13.98;;;16.00;73.50;;;;;;5057939;28;20112;-52
2022/04/14 07:47:42;;;;;;;20.23;13.48;;;16.10;73.60;;;;;;5083816;28;20056;-53
2022/04/14 07:50:10;;;;;;;21.20;14.57;;;16.20;73.80;;;;;;5076880;28;20078;-50
2022/04/14 07:53:04;;;;;;;24.27;15.52;;;16.30;73.50;;;;;;5079053;28;20043;-52
2022/04/14 07:55:33;;;;;;;22.08;15.30;;;16.40;74.00;;;;;;5080593;28;20048;-53
2022/04/14 07:58:07;;;;;;;26.40;16.15;;;16.40;73.00;;;;;;5075073;28;20036;-53
2022/04/14 08:00:36;;;;;;;26.17;16.35;;;16.50;73.90;;;;;;5079496;28;20092;-55
2022/04/14 08:03:04;;;;;;;25.42;17.10;;;16.50;73.80;;;;;;5082733;28;20804;-53
2022/04/14 08:05:33;;;;;;;25.92;16.83;;;16.60;73.70;;;;;;5076474;28;20034;-54
2022/04/14 08:08:05;;;;;;;31.08;19.60;;;16.70;73.80;;;;;;5080490;28;20036;-53
2022/04/14 08:10:32;;;;;;;30.27;18.98;;;16.80;73.80;;;;;;5077244;28;20024;-51
2022/04/14 08:13:00;;;;;;;27.83;17.95;;;16.90;73.80;;;;;;5062644;28;20063;-52
2022/04/14 08:15:31;;;;;;;28.45;18.00;;;17.10;73.60;;;;;;5074295;28;20060;-54
2022/04/14 08:17:58;;;;;;;29.23;17.88;;;17.20;73.30;;;;;;5074578;28;20037;-53
2022/04/14 08:20:25;;;;;;;31.67;20.60;;;17.30;73.50;;;;;;5069634;28;20036;-54
2022/04/14 08:22:59;;;;;;;34.70;19.63;;;17.50;72.20;;;;;;5084658;28;20086;-54
2022/04/14 08:25:32;;;;;;;32.78;20.35;;;17.60;71.90;;;;;;5085357;28;20036;-54
2022/04/14 08:28:01;;;;;;;35.70;22.38;;;17.70;71.00;;;;;;5081683;28;20437;-53
2022/04/14 08:30:29;;;;;;;33.45;22.02;;;17.90;70.60;;;;;;5089245;28;20040;-52
2022/04/14 08:33:00;;;;;;;35.38;21.48;;;17.90;70.00;;;;;;5084081;28;20045;-54
2022/04/14 08:35:30;;;;;;;33.00;21.50;;;17.90;69.80;;;;;;5078566;28;20040;-54
2022/04/14 08:37:57;;;;;;;32.70;20.50;;;17.90;69.20;;;;;;5079631;28;20044;-54
2022/04/14 08:40:28;;;;;;;28.95;19.92;;;17.90;69.40;;;;;;5080276;28;20053;-53
2022/04/14 08:43:01;;;;;;;30.45;19.77;;;17.90;69.40;;;;;;5082449;28;20040;-53
2022/04/14 08:45:43;;;;;;;28.90;19.65;;;17.90;69.70;;;;;;5080252;28;20474;-53
2022/04/14 08:48:12;;;;;;;30.77;20.55;;;17.90;69.60;;;;;;5084966;28;20036;-52
2022/04/14 08:50:40;;;;;;;30.33;20.95;;;17.90;69.40;;;;;;5085879;28;20093;-54
2022/04/14 08:53:09;;;;;;;32.63;22.10;;;17.90;69.80;;;;;;5080757;28;20453;-54
2022/04/14 08:55:42;;;;;;;35.08;22.35;;;17.90;69.50;;;;;;5088027;28;20081;-54
2022/04/14 08:58:14;;;;;;;32.67;22.88;;;18.00;69.80;;;;;;5082435;28;20511;-51
2022/04/14 09:00:41;;;;;;;32.42;23.40;;;18.00;70.00;;;;;;5081143;28;20098;-53
2022/04/14 09:03:28;;;;;;;33.47;23.90;;;18.00;70.00;;;;;;5082811;28;20036;-53
2022/04/14 09:05:55;;;;;;;36.08;25.30;;;18.10;70.10;;;;;;5080157;28;20120;-51
2022/04/14 09:08:22;;;;;;;34.17;24.30;;;18.10;70.20;;;;;;5078849;28;20085;-50
2022/04/14 09:10:51;;;;;;;36.80;24.27;;;18.20;70.50;;;;;;5073602;28;20082;-54
2022/04/14 09:13:20;;;;;;;36.78;25.13;;;18.40;70.20;;;;;;5084604;28;20043;-53
2022/04/14 09:15:48;;;;;;;38.58;28.17;;;18.30;69.80;;;;;;5082530;28;20408;-54
2022/04/14 09:18:17;;;;;;;41.30;28.73;;;18.40;69.30;;;;;;5083726;28;20058;-53
2022/04/14 09:20:48;;;;;;;44.58;32.00;;;18.50;68.50;;;;;;5082918;28;20040;-52
2022/04/14 09:23:22;;;;;;;43.03;30.88;;;18.50;68.20;;;;;;5045059;28;20128;-51
2022/04/14 09:26:04;;;;;;;43.65;30.92;;;18.60;67.60;;;;;;5079764;28;20036;-54
2022/04/14 09:28:31;;;;;;;40.80;29.40;;;18.60;67.80;;;;;;5085930;28;20031;-54
2022/04/14 09:31:04;;;;;;;43.00;32.58;;;18.60;67.90;;;;;;5083084;28;20035;-53
2022/04/14 09:33:33;;;;;;;43.83;31.02;;;18.70;68.20;;;;;;5082125;28;20119;-52
2022/04/14 09:36:15;;;;;;;41.30;29.30;;;18.70;67.60;;;;;;5078634;28;20125;-52
2022/04/14 09:38:58;;;;;;;34.42;25.45;;;18.70;68.50;;;;;;5082397;28;20036;-54
2022/04/14 09:41:32;;;;;;;40.78;27.55;;;18.80;68.80;;;;;;5084484;28;20078;-51
2022/04/14 09:44:01;;;;;;;44.28;30.08;;;18.90;67.80;;;;;;5082022;28;20029;-54
2022/04/14 09:46:29;;;;;;;37.40;27.63;;;18.90;67.30;;;;;;5079241;28;20071;-51
2022/04/14 09:49:23;;;;;;;35.42;26.85;;;19.00;66.30;;;;;;5085580;28;20054;-55
2022/04/14 09:51:51;;;;;;;33.63;24.45;;;19.10;65.90;;;;;;5083674;28;20086;-53
2022/04/14 09:54:26;;;;;;;30.70;23.10;;;19.10;66.10;;;;;;5091318;28;20036;-51
2022/04/14 09:56:55;;;;;;;30.73;22.98;;;19.20;65.50;;;;;;5086823;28;20040;-50
2022/04/14 09:59:28;;;;;;;27.05;21.45;;;19.30;65.50;;;;;;5084245;28;20066;-50
2022/04/14 10:02:09;;;;;;;25.80;19.00;;;19.40;66.00;;;;;;5080892;28;20036;-52
2022/04/14 10:04:42;;;;;;;25.58;19.48;;;19.50;63.80;;;;;;5085422;28;20074;-52
2022/04/14 10:07:10;;;;;;;30.52;21.90;;;19.60;64.10;;;;;;5083819;28;20040;-52
2022/04/14 10:09:39;;;;;;;23.98;19.38;;;19.60;63.50;;;;;;5090823;28;20039;-52
2022/04/14 10:12:27;;;;;;;29.02;19.98;;;19.70;62.90;;;;;;5085145;28;20081;-54
2022/04/14 10:14:56;;;;;;;26.92;20.13;;;19.80;62.20;;;;;;5080871;28;20040;-52
2022/04/14 10:17:25;;;;;;;24.55;18.98;;;19.80;62.00;;;;;;5082735;28;20135;-54
2022/04/14 10:19:52;;;;;;;24.88;19.98;;;19.80;61.60;;;;;;5082534;28;20079;-52
2022/04/14 10:22:19;;;;;;;24.92;18.95;;;19.80;62.10;;;;;;5082392;28;20039;-51
2022/04/14 10:24:46;;;;;;;25.50;19.77;;;19.90;61.90;;;;;;5088467;28;20708;-55
2022/04/14 10:27:15;;;;;;;28.33;21.17;;;19.90;61.70;;;;;;5087434;28;20089;-53
2022/04/14 10:29:41;;;;;;;27.73;21.42;;;20.00;61.50;;;;;;5082373;28;20078;-53
2022/04/14 10:32:08;;;;;;;25.60;19.73;;;20.10;62.30;;;;;;5092373;28;20432;-54
2022/04/14 10:34:38;;;;;;;27.70;19.25;;;20.20;62.30;;;;;;5086317;28;20093;-52
2022/04/14 10:37:08;;;;;;;22.80;17.83;;;20.30;61.90;;;;;;5082103;28;20044;-51
2022/04/14 10:39:43;;;;;;;21.70;17.02;;;20.40;60.80;;;;;;5077099;28;20040;-52
2022/04/14 10:42:24;;;;;;;22.10;16.77;;;20.50;60.90;;;;;;5088502;28;20059;-53
2022/04/14 10:44:53;;;;;;;20.75;16.92;;;20.50;61.00;;;;;;5069340;28;20048;-53
2022/04/14 10:47:50;;;;;;;19.25;16.50;;;20.60;60.70;;;;;;5078767;28;20066;-54
2022/04/14 10:50:26;;;;;;;11.85;9.82;;;20.60;59.90;;;;;;5071062;28;20044;-54
2022/04/14 10:53:05;;;;;;;15.88;10.20;;;20.60;57.50;;;;;;5077145;28;20040;-55
2022/04/14 10:55:44;;;;;;;15.13;11.98;;;20.50;57.50;;;;;;5067417;28;20085;-55
2022/04/14 10:58:29;;;;;;;17.30;12.25;;;20.50;57.70;;;;;;5082447;28;20117;-55
2022/04/14 11:00:56;;;;;;;13.23;10.35;;;20.50;57.50;;;;;;5090396;28;20050;-55
2022/04/14 11:03:48;;;;;;;14.95;10.82;;;20.40;57.50;;;;;;5086087;28;20601;-53
2022/04/14 11:06:40;;;;;;;11.52;8.88;;;20.40;56.80;;;;;;5080520;28;20070;-54
2022/04/14 11:09:48;;;;;;;11.98;10.18;;;20.40;57.30;;;;;;5090254;28;20036;-54
2022/04/14 11:12:27;;;;;;;14.02;10.38;;;20.50;56.90;;;;;;5079766;28;20105;-51
2022/04/14 11:15:02;;;;;;;14.95;12.27;;;20.60;58.10;;;;;;5072920;28;20064;-54
2022/04/14 11:17:40;;;;;;;12.38;9.70;;;20.70;57.30;;;;;;5081743;28;20044;-55
2022/04/14 11:20:15;;;;;;;11.30;7.93;;;20.80;55.80;;;;;;5082948;28;20464;-52
2022/04/14 11:23:06;;;;;;;10.25;7.78;;;20.90;54.60;;;;;;5082349;28;20047;-54
2022/04/14 11:26:00;;;;;;;11.10;8.75;;;20.90;54.60;;;;;;5087948;28;20128;-53
2022/04/14 11:28:31;;;;;;;10.18;7.95;;;20.90;54.80;;;;;;5069611;28;20094;-51
2022/04/14 11:31:00;;;;;;;10.77;8.80;;;21.00;54.50;;;;;;5054333;28;20040;-54
2022/04/14 11:33:28;;;;;;;9.48;6.70;;;21.00;54.90;;;;;;5089196;28;20043;-52
2022/04/14 11:36:14;;;;;;;9.63;7.47;;;21.00;54.90;;;;;;5077839;28;20037;-54
2022/04/14 11:38:59;;;;;;;9.80;8.75;;;21.00;54.80;;;;;;5069114;28;20048;-54
2022/04/14 11:41:33;;;;;;;12.95;9.30;;;21.10;55.60;;;;;;5080235;28;20032;-53
2022/04/14 11:44:02;;;;;;;9.35;8.30;;;21.10;55.50;;;;;;5080821;28;20093;-54
2022/04/14 11:46:30;;;;;;;7.45;6.60;;;21.30;55.80;;;;;;5086770;28;20064;-53
2022/04/14 11:48:59;;;;;;;6.38;4.88;;;21.40;55.30;;;;;;5081169;28;20043;-53
2022/04/14 11:51:29;;;;;;;8.75;7.13;;;21.60;54.10;;;;;;5080710;28;20526;-51
2022/04/14 11:53:56;;;;;;;11.00;8.00;;;21.80;53.90;;;;;;5078894;28;20040;-53
2022/04/14 11:56:39;;;;;;;9.50;8.55;;;21.90;53.00;;;;;;5078612;28;20062;-53
2022/04/14 11:59:08;;;;;;;11.25;7.93;;;22.10;52.80;;;;;;5084650;28;20042;-51
2022/04/14 12:01:46;;;;;;;11.07;9.23;;;22.20;52.10;;;;;;5074285;28;20048;-54
2022/04/14 12:04:13;;;;;;;12.88;10.60;;;22.30;52.20;;;;;;5082888;28;20048;-54
2022/04/14 12:06:53;;;;;;;11.35;10.05;;;22.30;52.50;;;;;;5080897;28;20077;-54
2022/04/14 12:09:21;;;;;;;13.18;9.73;;;22.40;51.80;;;;;;5062486;28;20101;-50
2022/04/14 12:11:47;;;;;;;9.07;8.18;;;22.50;52.50;;;;;;5076858;28;20638;-54
2022/04/14 12:14:16;;;;;;;8.57;7.72;;;22.60;52.50;;;;;;5088388;28;20519;-50
2022/04/14 12:16:50;;;;;;;12.02;9.23;;;22.60;52.40;;;;;;5074708;28;20071;-54
2022/04/14 12:19:18;;;;;;;9.45;8.15;;;22.80;50.70;;;;;;5071424;28;20049;-52
2022/04/14 12:22:03;;;;;;;9.68;8.70;;;22.80;51.60;;;;;;5076783;28;20093;-53
2022/04/14 12:24:29;;;;;;;10.73;8.95;;;22.90;51.50;;;;;;5077293;28;20079;-54
2022/04/14 12:26:58;;;;;;;11.00;8.52;;;22.90;51.20;;;;;;5085174;28;20428;-54
2022/04/14 12:29:25;;;;;;;9.45;8.52;;;22.90;51.30;;;;;;5085628;28;20534;-53
2022/04/14 12:31:56;;;;;;;9.02;7.80;;;22.90;50.00;;;;;;5080661;28;20415;-52
2022/04/14 12:34:23;;;;;;;9.43;8.45;;;22.90;49.80;;;;;;5059391;28;20036;-54
2022/04/14 12:37:13;;;;;;;10.25;8.82;;;22.80;49.10;;;;;;5081778;28;20396;-53
2022/04/14 12:40:00;;;;;;;9.05;8.15;;;22.60;48.70;;;;;;5076959;28;20048;-54
2022/04/14 12:42:33;;;;;;;10.13;8.25;;;22.50;49.50;;;;;;5074573;28;20047;-53
2022/04/14 12:45:05;;;;;;;14.38;10.15;;;22.30;50.70;;;;;;5082395;28;20036;-54
2022/04/14 12:47:32;;;;;;;12.35;10.13;;;22.30;50.90;;;;;;5083562;28;20044;-50
2022/04/14 12:50:00;;;;;;;11.57;10.38;;;22.20;51.50;;;;;;5081852;28;20044;-51